createdAt,value
2022-09-18T00:00:45.503Z,1.80
2022-09-18T00:03:12.078Z,2.30
2022-09-18T00:05:38.589Z,1.38
2022-09-18T00:08:05.353Z,1.58
2022-09-18T00:10:31.722Z,1.75
2022-09-18T00:12:58.981Z,2.35
2022-09-18T00:15:25.371Z,2.05
2022-09-18T00:17:51.709Z,2.13
2022-09-18T00:20:18.114Z,1.50
2022-09-18T00:22:44.546Z,2.13
2022-09-18T00:25:11.301Z,1.40
2022-09-18T00:27:37.610Z,1.40
2022-09-18T00:30:04.346Z,1.52
2022-09-18T00:32:30.666Z,1.88
2022-09-18T00:34:57.026Z,2.10
2022-09-18T00:37:23.366Z,2.15
2022-09-18T00:39:49.689Z,2.10
2022-09-18T00:42:19.177Z,2.38
2022-09-18T00:44:46.552Z,2.38
2022-09-18T00:47:15.680Z,2.38
2022-09-18T00:49:51.328Z,1.95
2022-09-18T00:54:46.240Z,2.78
2022-09-18T00:57:16.174Z,2.25
2022-09-18T00:59:44.981Z,1.77
2022-09-18T01:02:12.267Z,2.42
2022-09-18T01:04:38.721Z,2.58
2022-09-18T01:07:14.149Z,2.28
2022-09-18T01:09:50.232Z,2.50
2022-09-18T01:12:19.716Z,2.55
2022-09-18T01:14:57.419Z,2.70
2022-09-18T01:17:23.704Z,2.10
2022-09-18T01:20:05.044Z,2.38
2022-09-18T01:22:50.341Z,2.10
2022-09-18T01:25:36.395Z,2.33
2022-09-18T01:30:29.823Z,2.45
2022-09-18T01:33:02.655Z,2.25
2022-09-18T01:35:42.782Z,2.35
2022-09-18T01:38:31.469Z,2.85
2022-09-18T01:41:12.121Z,2.72
2022-09-18T01:43:39.497Z,1.98
2022-09-18T01:46:08.484Z,2.55
2022-09-18T01:48:39.783Z,2.17
2022-09-18T01:51:08.743Z,2.35
2022-09-18T01:53:39.030Z,2.25
2022-09-18T01:56:43.975Z,1.92
2022-09-18T01:59:12.681Z,2.08
2022-09-18T02:01:41.174Z,2.53
2022-09-18T02:04:11.279Z,1.90
2022-09-18T02:06:43.350Z,1.67
2022-09-18T02:09:11.038Z,1.75
2022-09-18T02:11:40.344Z,2.67
2022-09-18T02:14:15.983Z,2.55
2022-09-18T02:19:18.341Z,1.70
2022-09-18T02:21:45.892Z,1.77
2022-09-18T02:24:14.104Z,1.70
2022-09-18T02:26:41.091Z,2.22
2022-09-18T02:29:09.075Z,1.65
2022-09-18T02:31:37.060Z,1.83
2022-09-18T02:34:08.263Z,1.80
2022-09-18T02:36:34.540Z,1.70
2022-09-18T02:39:20.143Z,2.25
2022-09-18T02:41:56.025Z,2.10
2022-09-18T02:44:27.638Z,1.95
2022-09-18T02:47:20.315Z,2.08
2022-09-18T02:49:55.505Z,2.58
2022-09-18T02:52:25.138Z,1.80
2022-09-18T02:54:57.844Z,2.20
2022-09-18T02:57:28.882Z,2.33
2022-09-18T02:59:57.047Z,2.15
2022-09-18T03:02:24.849Z,2.42
2022-09-18T03:04:52.091Z,1.83
2022-09-18T03:07:18.791Z,1.95
2022-09-18T03:09:45.307Z,2.63
2022-09-18T03:12:11.783Z,2.85
2022-09-18T03:14:38.177Z,1.85
2022-09-18T03:17:04.663Z,2.67
2022-09-18T03:19:31.094Z,2.00
2022-09-18T03:21:57.450Z,2.30
2022-09-18T03:24:25.347Z,2.30
2022-09-18T03:26:52.088Z,2.35
2022-09-18T03:29:18.621Z,1.98
2022-09-18T03:31:44.977Z,2.20
2022-09-18T03:34:11.603Z,2.33
2022-09-18T03:36:38.276Z,1.80
2022-09-18T03:39:05.760Z,2.15
2022-09-18T03:41:32.055Z,2.55
2022-09-18T03:43:58.375Z,2.00
2022-09-18T03:46:24.828Z,1.60
2022-09-18T03:48:51.505Z,1.90
2022-09-18T03:51:18.951Z,2.33
2022-09-18T03:53:45.982Z,1.90
2022-09-18T03:56:13.363Z,1.83
2022-09-18T03:58:39.850Z,1.50
2022-09-18T04:01:06.958Z,2.30
2022-09-18T04:03:34.029Z,1.80
2022-09-18T04:06:00.627Z,1.83
2022-09-18T04:08:26.943Z,1.80
2022-09-18T04:10:53.470Z,1.80
2022-09-18T04:13:20.599Z,1.80
2022-09-18T04:15:50.293Z,2.05
2022-09-18T04:18:17.535Z,1.55
2022-09-18T04:20:43.851Z,2.00
2022-09-18T04:23:12.227Z,1.95
2022-09-18T04:25:38.918Z,1.90
2022-09-18T04:28:05.281Z,1.67
2022-09-18T04:30:31.595Z,1.83
2022-09-18T04:32:57.995Z,1.85
2022-09-18T04:35:24.368Z,1.50
2022-09-18T04:37:50.684Z,1.95
2022-09-18T04:40:17.165Z,1.92
2022-09-18T04:42:43.538Z,1.50
2022-09-18T04:45:10.845Z,1.50
2022-09-18T04:47:37.283Z,1.65
2022-09-18T04:50:04.340Z,2.30
2022-09-18T04:52:31.015Z,1.40
2022-09-18T04:54:57.381Z,1.73
2022-09-18T04:57:23.685Z,1.98
2022-09-18T04:59:50.023Z,1.63
2022-09-18T05:02:16.424Z,1.50
2022-09-18T05:04:42.806Z,1.90
2022-09-18T05:07:09.167Z,1.48
2022-09-18T05:09:36.206Z,2.50
2022-09-18T05:12:03.286Z,2.03
2022-09-18T05:14:29.661Z,1.60
2022-09-18T05:16:56.453Z,1.58
2022-09-18T05:19:23.308Z,1.83
2022-09-18T05:21:50.443Z,2.10
2022-09-18T05:24:17.599Z,2.00
2022-09-18T05:26:44.618Z,1.60
2022-09-18T05:29:11.065Z,1.30
2022-09-18T05:31:37.607Z,1.58
2022-09-18T05:34:04.001Z,2.22
2022-09-18T05:36:30.526Z,1.38
2022-09-18T05:38:57.034Z,1.67
2022-09-18T05:41:23.377Z,1.27
2022-09-18T05:43:50.005Z,2.20
2022-09-18T05:46:16.597Z,2.40
2022-09-18T05:48:43.195Z,1.52
2022-09-18T05:51:09.526Z,1.70
2022-09-18T05:53:35.935Z,1.70
2022-09-18T05:56:02.334Z,1.50
2022-09-18T05:58:28.697Z,1.85
2022-09-18T06:00:59.346Z,1.80
2022-09-18T06:03:25.915Z,1.90
2022-09-18T06:05:53.375Z,1.52
2022-09-18T06:08:20.423Z,1.30
2022-09-18T06:10:47.276Z,1.60
2022-09-18T06:13:15.642Z,1.50
2022-09-18T06:15:49.521Z,1.35
2022-09-18T06:18:16.157Z,1.80
2022-09-18T06:20:43.091Z,1.50
2022-09-18T06:23:09.536Z,1.10
2022-09-18T06:25:36.440Z,1.50
2022-09-18T06:28:03.075Z,1.40
2022-09-18T06:30:31.861Z,1.52
2022-09-18T06:33:05.511Z,2.50
2022-09-18T06:35:35.518Z,1.67
2022-09-18T06:38:03.135Z,1.75
2022-09-18T06:40:30.348Z,1.38
2022-09-18T06:42:57.243Z,1.38
2022-09-18T06:45:25.925Z,1.50
2022-09-18T06:47:54.461Z,2.03
2022-09-18T06:50:24.048Z,1.50
2022-09-18T06:52:50.822Z,2.08
2022-09-18T06:55:18.112Z,1.27
2022-09-18T06:57:54.877Z,1.60
2022-09-18T07:00:21.595Z,1.67
2022-09-18T07:02:53.981Z,1.45
2022-09-18T07:05:20.415Z,1.50
2022-09-18T07:07:46.691Z,1.30
2022-09-18T07:10:13.004Z,1.55
2022-09-18T07:12:39.382Z,1.38
2022-09-18T07:15:06.412Z,1.08
2022-09-18T07:17:33.403Z,1.20
2022-09-18T07:19:59.989Z,1.55
2022-09-18T07:22:26.748Z,1.20
2022-09-18T07:24:53.818Z,1.42
2022-09-18T07:27:20.218Z,1.52
2022-09-18T07:29:46.547Z,1.58
2022-09-18T07:32:12.863Z,1.45
2022-09-18T07:34:39.231Z,1.35
2022-09-18T07:37:05.530Z,1.10
2022-09-18T07:39:31.881Z,0.98
2022-09-18T07:41:58.264Z,1.30
2022-09-18T07:44:26.125Z,1.70
2022-09-18T07:46:55.384Z,0.90
2022-09-18T07:49:21.775Z,1.20
2022-09-18T07:51:48.182Z,1.55
2022-09-18T07:54:14.477Z,1.35
2022-09-18T07:56:46.024Z,1.27
2022-09-18T07:59:13.134Z,1.85
2022-09-18T08:01:39.560Z,1.50
2022-09-18T08:04:06.520Z,1.60
2022-09-18T08:06:32.859Z,1.58
2022-09-18T08:08:59.210Z,1.35
2022-09-18T08:11:25.633Z,1.38
2022-09-18T08:13:52.033Z,1.95
2022-09-18T08:16:18.444Z,1.25
2022-09-18T08:18:44.928Z,1.30
2022-09-18T08:21:11.255Z,1.70
2022-09-18T08:23:37.572Z,1.75
2022-09-18T08:26:04.184Z,1.80
2022-09-18T08:28:30.535Z,1.42
2022-09-18T08:30:57.400Z,1.65
2022-09-18T08:33:23.968Z,1.30
2022-09-18T08:35:50.366Z,1.35
2022-09-18T08:38:16.691Z,1.40
2022-09-18T08:40:43.040Z,1.73
2022-09-18T08:43:15.478Z,1.48
2022-09-18T08:45:56.266Z,1.08
2022-09-18T08:48:28.035Z,1.33
2022-09-18T08:50:59.077Z,1.88
2022-09-18T08:53:38.781Z,1.42
2022-09-18T08:56:08.693Z,1.30
2022-09-18T08:58:34.980Z,1.20
2022-09-18T09:01:09.162Z,1.35
2022-09-18T09:03:51.925Z,1.20
2022-09-18T09:06:41.712Z,1.42
2022-09-18T09:09:21.508Z,1.33
2022-09-18T09:12:11.099Z,1.02
2022-09-18T09:14:57.257Z,1.67
2022-09-18T09:17:30.123Z,1.20
2022-09-18T09:20:15.441Z,1.35
2022-09-18T09:22:49.772Z,1.37
2022-09-18T09:25:19.479Z,0.90
2022-09-18T09:27:49.377Z,1.40
2022-09-18T09:30:17.381Z,0.85
2022-09-18T09:33:01.963Z,0.90
2022-09-18T09:35:45.687Z,1.10
2022-09-18T09:38:30.980Z,1.10
2022-09-18T09:40:58.900Z,1.20
2022-09-18T09:43:35.099Z,1.70
2022-09-18T09:46:06.090Z,1.00
2022-09-18T09:48:46.038Z,1.13
2022-09-18T09:51:22.275Z,0.73
2022-09-18T09:53:49.197Z,1.00
2022-09-18T09:56:29.650Z,1.02
2022-09-18T09:58:59.408Z,0.90
2022-09-18T10:01:27.991Z,0.90
2022-09-18T10:04:00.451Z,0.90
2022-09-18T10:06:41.746Z,0.75
2022-09-18T10:09:10.816Z,1.10
2022-09-18T10:11:40.458Z,1.05
2022-09-18T10:14:15.276Z,0.77
2022-09-18T10:16:43.350Z,1.10
2022-09-18T10:19:18.092Z,1.02
2022-09-18T10:21:45.552Z,1.17
2022-09-18T10:24:34.483Z,1.35
2022-09-18T10:27:02.510Z,1.42
2022-09-18T10:29:30.873Z,1.20
2022-09-18T10:32:01.157Z,1.23
2022-09-18T10:34:32.410Z,1.55
2022-09-18T10:36:58.891Z,1.20
2022-09-18T10:39:31.542Z,1.23
2022-09-18T10:42:13.568Z,1.20
2022-09-18T10:44:40.823Z,1.25
2022-09-18T10:47:12.420Z,1.02
2022-09-18T10:49:48.387Z,1.23
2022-09-18T10:52:14.674Z,1.17
2022-09-18T10:54:41.049Z,1.10
2022-09-18T10:57:25.902Z,1.05
2022-09-18T10:59:52.201Z,0.93
2022-09-18T11:02:20.117Z,1.40
2022-09-18T11:04:50.331Z,0.95
2022-09-18T11:07:21.316Z,1.30
2022-09-18T11:09:50.621Z,1.20
2022-09-18T11:12:24.155Z,1.13
2022-09-18T11:15:01.074Z,1.05
2022-09-18T11:17:29.627Z,1.02
2022-09-18T11:19:57.325Z,1.10
2022-09-18T11:22:34.455Z,1.05
2022-09-18T11:25:17.532Z,1.23
2022-09-18T11:27:48.633Z,1.08
2022-09-18T11:30:16.275Z,1.05
2022-09-18T11:32:45.020Z,0.90
2022-09-18T11:35:14.545Z,0.98
2022-09-18T11:37:49.027Z,0.98
2022-09-18T11:40:18.896Z,0.88
2022-09-18T11:42:48.619Z,1.00
2022-09-18T11:45:35.918Z,0.70
2022-09-18T11:48:19.421Z,1.05
2022-09-18T11:50:46.685Z,1.05
2022-09-18T11:53:19.281Z,0.80
2022-09-18T11:55:52.833Z,0.95
2022-09-18T11:58:37.876Z,1.00
2022-09-18T12:01:10.257Z,0.90
2022-09-18T12:03:45.902Z,0.90
2022-09-18T12:11:03.581Z,0.90
2022-09-18T12:13:48.574Z,0.88
2022-09-18T12:16:15.009Z,0.80
2022-09-18T12:18:51.092Z,1.00
2022-09-18T12:21:20.032Z,1.10
2022-09-18T12:23:46.420Z,1.20
2022-09-18T12:26:20.640Z,1.02
2022-09-18T12:28:50.283Z,1.17
2022-09-18T12:31:35.944Z,0.95
2022-09-18T12:34:31.821Z,1.00
2022-09-18T12:36:58.388Z,0.93
2022-09-18T12:39:33.634Z,0.73
2022-09-18T12:42:18.619Z,0.85
2022-09-18T12:45:03.792Z,0.75
2022-09-18T12:47:36.513Z,0.80
2022-09-18T12:50:11.757Z,1.05
2022-09-18T12:53:06.319Z,0.90
2022-09-18T12:55:38.815Z,0.90
2022-09-18T12:58:25.362Z,0.90
2022-09-18T13:00:52.463Z,1.10
2022-09-18T13:03:25.823Z,1.30
2022-09-18T13:05:57.858Z,1.60
2022-09-18T13:08:24.140Z,1.02
2022-09-18T13:10:53.673Z,1.08
2022-09-18T13:13:43.042Z,1.10
2022-09-18T13:16:20.213Z,1.35
2022-09-18T13:18:49.717Z,1.40
2022-09-18T13:21:18.390Z,1.75
2022-09-18T13:23:45.409Z,1.10
2022-09-18T13:26:14.714Z,1.20
2022-09-18T13:28:42.480Z,1.38
2022-09-18T13:31:14.715Z,1.42
2022-09-18T13:33:52.112Z,1.80
2022-09-18T13:36:23.084Z,1.65
2022-09-18T13:38:50.730Z,1.77
2022-09-18T13:41:17.641Z,1.85
2022-09-18T13:43:45.654Z,1.65
2022-09-18T13:46:29.567Z,2.20
2022-09-18T13:48:57.424Z,2.10
2022-09-18T13:51:28.489Z,2.20
2022-09-18T13:54:12.404Z,2.13
2022-09-18T13:56:57.451Z,1.90
2022-09-18T13:59:43.057Z,1.77
2022-09-18T14:02:22.786Z,1.80
2022-09-18T14:04:50.433Z,1.85
2022-09-18T14:07:16.982Z,1.83
2022-09-18T14:09:49.052Z,1.67
2022-09-18T14:12:16.135Z,2.00
2022-09-18T14:14:43.832Z,1.83
2022-09-18T14:17:14.113Z,1.83
2022-09-18T14:19:43.994Z,2.08
2022-09-18T14:22:27.787Z,2.67
2022-09-18T14:24:56.170Z,1.77
2022-09-18T14:27:41.183Z,1.98
2022-09-18T14:30:19.011Z,1.67
2022-09-18T14:32:57.319Z,2.22
2022-09-18T14:35:35.855Z,1.40
2022-09-18T14:38:02.509Z,1.80
2022-09-18T14:40:30.783Z,1.70
2022-09-18T14:42:57.178Z,1.42
2022-09-18T14:45:28.349Z,1.48
2022-09-18T14:47:55.370Z,1.65
2022-09-18T14:50:24.520Z,0.90
2022-09-18T14:52:51.161Z,1.27
2022-09-18T14:55:19.326Z,1.10
2022-09-18T14:58:04.635Z,1.50
2022-09-18T15:00:32.146Z,0.87
2022-09-18T15:03:00.228Z,0.77
2022-09-18T15:05:27.310Z,1.00
2022-09-18T15:07:56.038Z,0.95
2022-09-18T15:10:22.734Z,1.02
2022-09-18T15:12:49.511Z,1.05
2022-09-18T15:15:25.164Z,0.85
2022-09-18T15:20:17.930Z,1.10
2022-09-18T15:22:44.320Z,1.17
2022-09-18T15:25:14.525Z,1.02
2022-09-18T15:27:41.513Z,1.00
2022-09-18T15:30:14.281Z,0.90
2022-09-18T15:32:42.486Z,1.30
2022-09-18T15:35:13.681Z,1.15
2022-09-18T15:37:41.122Z,1.10
2022-09-18T15:40:09.114Z,1.00
2022-09-18T15:42:36.891Z,1.00
2022-09-18T15:45:03.912Z,0.95
2022-09-18T15:47:36.436Z,1.23
2022-09-18T15:50:22.705Z,0.70
2022-09-18T15:52:52.042Z,0.80
2022-09-18T15:55:18.389Z,0.77
2022-09-18T15:57:51.523Z,0.60
2022-09-18T16:00:18.864Z,0.60
2022-09-18T16:02:50.759Z,0.57
2022-09-18T16:05:17.623Z,0.85
2022-09-18T16:07:57.474Z,0.90
2022-09-18T16:10:39.652Z,0.50
2022-09-18T16:13:25.966Z,0.50
2022-09-18T16:16:14.401Z,0.55
2022-09-18T16:18:55.516Z,0.32
2022-09-18T16:21:23.950Z,0.50
2022-09-18T16:23:55.157Z,0.45
2022-09-18T16:26:31.749Z,0.43
2022-09-18T16:29:00.252Z,0.50
2022-09-18T16:31:28.246Z,0.70
2022-09-18T16:34:01.341Z,0.60
2022-09-18T16:36:27.680Z,0.70
2022-09-18T16:38:55.024Z,0.60
2022-09-18T16:41:21.653Z,0.68
2022-09-18T16:43:48.066Z,0.70
2022-09-18T16:46:14.734Z,0.60
2022-09-18T16:48:41.336Z,0.70
2022-09-18T16:51:07.687Z,0.70
2022-09-18T16:53:35.194Z,0.80
2022-09-18T16:56:01.988Z,0.80
2022-09-18T16:58:29.065Z,0.70
2022-09-18T17:00:56.466Z,0.68
2022-09-18T17:03:22.898Z,0.70
2022-09-18T17:05:49.187Z,0.60
2022-09-18T17:08:16.037Z,1.00
2022-09-18T17:10:45.124Z,0.60
2022-09-18T17:13:12.620Z,0.70
2022-09-18T17:15:39.044Z,0.60
2022-09-18T17:18:05.466Z,0.47
2022-09-18T17:20:34.918Z,0.70
2022-09-18T17:23:01.323Z,0.80
2022-09-18T17:25:27.783Z,0.70
2022-09-18T17:27:54.118Z,0.60
2022-09-18T17:30:20.599Z,0.70
2022-09-18T17:32:48.399Z,0.80
2022-09-18T17:35:15.452Z,1.33
2022-09-18T17:37:41.848Z,1.58
2022-09-18T17:40:08.306Z,1.17
2022-09-18T17:42:36.121Z,1.08
2022-09-18T17:45:02.412Z,1.10
2022-09-18T17:47:30.915Z,1.45
2022-09-18T17:49:57.333Z,1.17
2022-09-18T17:52:23.639Z,0.95
2022-09-18T17:54:50.024Z,0.80
2022-09-18T17:57:17.033Z,0.90
2022-09-18T17:59:44.179Z,0.80
2022-09-18T18:02:12.270Z,0.80
2022-09-18T18:04:38.775Z,0.95
2022-09-18T18:07:05.639Z,1.10
2022-09-18T18:09:32.177Z,0.93
2022-09-18T18:11:58.660Z,0.90
2022-09-18T18:14:25.167Z,1.08
2022-09-18T18:16:52.688Z,1.08
2022-09-18T18:19:19.324Z,1.08
2022-09-18T18:21:45.826Z,0.80
2022-09-18T18:24:15.106Z,0.90
2022-09-18T18:26:41.439Z,0.60
2022-09-18T18:29:10.721Z,0.80
2022-09-18T18:31:37.852Z,0.90
2022-09-18T18:34:04.523Z,0.73
2022-09-18T18:36:31.930Z,0.77
2022-09-18T18:38:59.469Z,0.70
2022-09-18T18:41:28.336Z,1.10
2022-09-18T18:43:56.002Z,1.20
2022-09-18T18:46:23.986Z,0.95
2022-09-18T18:48:55.040Z,1.23
2022-09-18T18:51:21.390Z,1.23
2022-09-18T18:53:47.836Z,1.20
2022-09-18T18:56:15.600Z,0.77
2022-09-18T18:58:42.830Z,0.77
2022-09-18T19:01:14.334Z,0.88
2022-09-18T19:03:44.672Z,0.80
2022-09-18T19:06:11.524Z,0.80
2022-09-18T19:08:38.114Z,0.90
2022-09-18T19:11:05.024Z,1.20
2022-09-18T19:13:32.209Z,0.75
2022-09-18T19:16:02.300Z,0.70
2022-09-18T19:18:28.669Z,0.63
2022-09-18T19:20:57.579Z,0.90
2022-09-18T19:23:23.967Z,1.30
2022-09-18T19:25:50.274Z,1.17
2022-09-18T19:28:17.023Z,0.80
2022-09-18T19:30:43.481Z,0.98
2022-09-18T19:33:16.110Z,0.73
2022-09-18T19:35:42.925Z,0.95
2022-09-18T19:38:09.592Z,0.90
2022-09-18T19:40:37.756Z,0.90
2022-09-18T19:43:06.468Z,0.60
2022-09-18T19:45:34.118Z,0.90
2022-09-18T19:48:01.801Z,0.90
2022-09-18T19:50:29.816Z,0.57
2022-09-18T19:52:56.259Z,0.52
2022-09-18T19:55:23.039Z,0.50
2022-09-18T19:57:52.443Z,1.00
2022-09-18T20:00:19.097Z,0.90
2022-09-18T20:08:49.060Z,0.82
2022-09-18T20:11:15.759Z,0.60
2022-09-18T20:13:42.111Z,0.57
2022-09-18T20:16:09.413Z,0.88
2022-09-18T20:18:36.235Z,0.70
2022-09-18T20:21:10.161Z,0.60
2022-09-18T20:23:37.122Z,0.68
2022-09-18T20:26:11.662Z,0.90
2022-09-18T20:28:38.310Z,0.70
2022-09-18T20:31:08.756Z,0.70
2022-09-18T20:33:35.199Z,0.70
2022-09-18T20:36:02.006Z,0.80
2022-09-18T20:38:35.153Z,0.77
2022-09-18T20:41:06.999Z,0.60
2022-09-18T20:43:38.990Z,0.75
2022-09-18T20:46:07.323Z,0.80
2022-09-18T20:48:34.701Z,0.75
2022-09-18T20:51:07.538Z,0.60
2022-09-18T20:53:34.454Z,0.63
2022-09-18T20:56:02.975Z,0.65
2022-09-18T20:58:32.034Z,0.77
2022-09-18T21:00:58.555Z,0.80
2022-09-18T21:03:25.297Z,0.93
2022-09-18T21:06:07.461Z,0.90
2022-09-18T21:08:42.958Z,0.75
2022-09-18T21:11:17.218Z,0.77
2022-09-18T21:13:47.313Z,0.80
2022-09-18T21:16:14.747Z,0.93
2022-09-18T21:18:41.365Z,0.73
2022-09-18T21:21:11.710Z,0.98
2022-09-18T21:23:53.905Z,0.82
2022-09-18T21:26:20.983Z,0.70
2022-09-18T21:28:51.067Z,0.70
2022-09-18T21:31:17.607Z,0.80
2022-09-18T21:33:44.495Z,0.60
2022-09-18T21:36:10.880Z,0.95
2022-09-18T21:38:40.081Z,0.68
2022-09-18T21:41:09.471Z,0.80
2022-09-18T21:43:38.181Z,0.88
2022-09-18T21:46:05.694Z,1.02
2022-09-18T21:48:32.778Z,0.70
2022-09-18T21:51:03.094Z,0.65
2022-09-18T21:53:30.240Z,0.77
2022-09-18T21:56:03.897Z,0.73
2022-09-18T21:58:31.062Z,0.80
2022-09-18T22:00:57.447Z,0.50
2022-09-18T22:03:25.221Z,0.90
2022-09-18T22:05:52.927Z,0.63
2022-09-18T22:08:19.588Z,0.80
2022-09-18T22:10:46.081Z,0.50
2022-09-18T22:13:12.472Z,0.50
2022-09-18T22:15:38.939Z,0.80
2022-09-18T22:18:08.174Z,0.70
2022-09-18T22:20:37.613Z,0.95
2022-09-18T22:23:04.292Z,0.90
2022-09-18T22:25:31.957Z,0.80
2022-09-18T22:27:59.034Z,0.80
2022-09-18T22:30:26.062Z,0.77
2022-09-18T22:32:52.438Z,1.10
2022-09-18T22:35:19.007Z,0.90
2022-09-18T22:37:45.395Z,0.80
2022-09-18T22:40:11.852Z,0.80
2022-09-18T22:42:38.166Z,0.80
2022-09-18T22:45:05.663Z,0.82
2022-09-18T22:47:31.994Z,0.90
2022-09-18T22:49:58.681Z,0.80
2022-09-18T22:52:25.124Z,0.80
2022-09-18T22:54:51.515Z,1.00
2022-09-18T22:57:18.218Z,1.13
2022-09-18T22:59:44.594Z,0.63
2022-09-18T23:02:10.974Z,0.88
2022-09-18T23:04:38.187Z,0.82
2022-09-18T23:07:04.642Z,0.80
2022-09-18T23:09:31.327Z,1.00
2022-09-18T23:11:58.106Z,0.95
2022-09-18T23:14:28.653Z,0.90
2022-09-18T23:16:55.793Z,1.17
2022-09-18T23:19:27.081Z,1.20
2022-09-18T23:21:53.884Z,0.75
2022-09-18T23:24:20.749Z,0.98
2022-09-18T23:26:48.565Z,1.10
2022-09-18T23:29:16.182Z,0.90
2022-09-18T23:31:43.312Z,1.00
2022-09-18T23:34:14.043Z,1.13
2022-09-18T23:36:41.844Z,1.05
2022-09-18T23:39:11.893Z,1.00
2022-09-18T23:41:38.530Z,1.00
2022-09-18T23:44:06.200Z,1.05
2022-09-18T23:46:33.194Z,1.35
2022-09-18T23:48:59.915Z,1.20
2022-09-18T23:51:33.503Z,1.48
2022-09-18T23:54:01.132Z,1.58
2022-09-18T23:56:29.189Z,1.27
2022-09-18T23:58:57.494Z,1.60
